createdAt,value
2022-12-27T00:01:11.243Z,1.40
2022-12-27T00:03:39.120Z,0.80
2022-12-27T00:06:08.701Z,0.90
2022-12-27T00:08:36.663Z,0.83
2022-12-27T00:11:08.757Z,0.50
2022-12-27T00:13:38.337Z,0.97
2022-12-27T00:16:07.794Z,0.53
2022-12-27T00:18:36.262Z,0.80
2022-12-27T00:21:06.036Z,0.70
2022-12-27T00:23:36.369Z,0.83
2022-12-27T00:26:06.299Z,1.27
2022-12-27T00:28:35.400Z,0.77
2022-12-27T00:31:05.474Z,0.77
2022-12-27T00:33:35.172Z,0.80
2022-12-27T00:36:04.865Z,1.00
2022-12-27T00:38:33.647Z,0.57
2022-12-27T00:41:01.905Z,0.73
2022-12-27T00:43:29.869Z,0.83
2022-12-27T00:45:57.949Z,0.43
2022-12-27T00:48:27.248Z,0.97
2022-12-27T00:50:59.762Z,0.80
2022-12-27T00:53:29.334Z,0.93
2022-12-27T00:55:57.527Z,0.87
2022-12-27T00:58:26.228Z,0.40
2022-12-27T01:00:54.758Z,1.33
2022-12-27T01:03:22.683Z,0.60
2022-12-27T01:05:52.043Z,0.50
2022-12-27T01:08:20.040Z,0.80
2022-12-27T01:10:47.903Z,0.70
2022-12-27T01:13:15.908Z,0.93
2022-12-27T01:15:44.171Z,0.73
2022-12-27T01:18:12.005Z,1.00
2022-12-27T01:20:39.960Z,0.87
2022-12-27T01:23:09.151Z,1.53
2022-12-27T01:25:37.008Z,0.97
2022-12-27T01:28:05.118Z,1.23
2022-12-27T01:30:33.219Z,1.13
2022-12-27T01:33:01.125Z,0.63
2022-12-27T01:35:29.049Z,0.70
2022-12-27T01:37:56.936Z,0.30
2022-12-27T01:40:26.398Z,0.73
2022-12-27T01:42:53.311Z,1.27
2022-12-27T01:45:22.699Z,0.30
2022-12-27T01:47:55.170Z,0.50
2022-12-27T01:50:28.780Z,0.77
2022-12-27T01:53:05.840Z,0.50
2022-12-27T01:55:40.061Z,0.87
2022-12-27T01:58:12.336Z,0.80
2022-12-27T02:00:44.371Z,0.70
2022-12-27T02:03:14.853Z,0.60
2022-12-27T02:05:43.409Z,0.47
2022-12-27T02:08:24.863Z,0.80
2022-12-27T02:10:54.643Z,0.97
2022-12-27T02:13:22.917Z,0.73
2022-12-27T02:15:50.891Z,0.77
2022-12-27T02:18:19.714Z,0.83
2022-12-27T02:21:16.518Z,0.90
2022-12-27T02:24:03.798Z,1.00
2022-12-27T02:26:52.711Z,0.67
2022-12-27T02:29:40.452Z,0.50
2022-12-27T02:32:13.075Z,1.20
2022-12-27T02:34:53.376Z,0.17
2022-12-27T02:37:23.955Z,1.07
2022-12-27T02:39:53.096Z,0.50
2022-12-27T02:42:38.961Z,0.53
2022-12-27T02:45:36.377Z,0.80
2022-12-27T02:48:23.237Z,0.83
2022-12-27T02:51:19.012Z,0.60
2022-12-27T02:53:55.618Z,0.70
2022-12-27T02:56:55.326Z,0.70
2022-12-27T02:59:37.475Z,1.47
2022-12-27T03:02:38.127Z,0.70
2022-12-27T03:05:19.777Z,0.73
2022-12-27T03:07:53.963Z,0.50
2022-12-27T03:10:47.914Z,1.00
2022-12-27T03:13:51.147Z,1.03
2022-12-27T03:16:24.825Z,1.07
2022-12-27T03:19:04.013Z,0.80
2022-12-27T03:21:52.732Z,1.17
2022-12-27T03:24:42.601Z,1.20
2022-12-27T03:27:18.504Z,1.23
2022-12-27T03:30:11.400Z,1.33
2022-12-27T03:33:02.595Z,1.13
2022-12-27T03:35:35.727Z,1.37
2022-12-27T03:38:05.348Z,1.07
2022-12-27T03:41:11.807Z,1.10
2022-12-27T03:43:41.001Z,0.63
2022-12-27T03:46:38.869Z,1.60
2022-12-27T03:49:18.388Z,1.70
2022-12-27T03:51:52.312Z,1.00
2022-12-27T03:54:26.525Z,1.17
2022-12-27T03:56:57.202Z,0.77
2022-12-27T03:59:25.857Z,1.33
2022-12-27T04:01:53.941Z,1.13
2022-12-27T04:04:22.060Z,1.33
2022-12-27T04:06:51.573Z,1.20
2022-12-27T04:09:37.660Z,1.10
2022-12-27T04:12:23.386Z,1.20
2022-12-27T04:15:08.871Z,0.93
2022-12-27T04:17:54.752Z,1.10
2022-12-27T04:20:40.547Z,1.13
2022-12-27T04:23:28.075Z,1.17
2022-12-27T04:26:15.484Z,1.20
2022-12-27T04:29:00.728Z,1.10
2022-12-27T04:31:46.084Z,1.57
2022-12-27T04:34:31.559Z,1.03
2022-12-27T04:36:59.513Z,0.80
2022-12-27T04:39:28.890Z,0.93
2022-12-27T04:42:14.391Z,0.73
2022-12-27T04:44:59.829Z,1.13
2022-12-27T04:47:45.689Z,1.00
2022-12-27T04:50:38.010Z,0.90
2022-12-27T04:53:28.106Z,0.90
2022-12-27T04:55:57.596Z,1.30
2022-12-27T04:58:25.790Z,1.00
2022-12-27T05:01:14.257Z,0.77
2022-12-27T05:03:43.012Z,1.17
2022-12-27T05:06:11.513Z,1.23
2022-12-27T05:08:57.193Z,1.20
2022-12-27T05:11:44.789Z,0.83
2022-12-27T05:14:16.539Z,1.27
2022-12-27T05:16:45.676Z,0.90
2022-12-27T05:19:15.548Z,0.50
2022-12-27T05:22:05.647Z,1.10
2022-12-27T05:24:51.112Z,0.70
2022-12-27T05:27:20.553Z,0.80
2022-12-27T05:29:48.905Z,0.80
2022-12-27T05:32:16.945Z,1.53
2022-12-27T05:34:44.945Z,0.90
2022-12-27T05:37:13.553Z,1.53
2022-12-27T05:39:41.762Z,0.97
2022-12-27T05:42:09.729Z,0.93
2022-12-27T05:44:39.246Z,1.00
2022-12-27T05:47:07.275Z,0.47
2022-12-27T05:49:35.295Z,1.17
2022-12-27T05:52:03.375Z,0.87
2022-12-27T05:54:31.351Z,0.80
2022-12-27T05:56:59.347Z,1.00
2022-12-27T05:59:27.274Z,1.27
2022-12-27T06:01:56.714Z,0.70
2022-12-27T06:04:24.932Z,1.00
2022-12-27T06:06:52.919Z,1.23
2022-12-27T06:09:21.079Z,0.77
2022-12-27T06:11:49.143Z,0.83
2022-12-27T06:14:17.122Z,1.47
2022-12-27T06:16:45.111Z,1.17
2022-12-27T06:19:14.482Z,0.90
2022-12-27T06:21:42.385Z,1.37
2022-12-27T06:24:10.440Z,0.63
2022-12-27T06:26:38.642Z,1.33
2022-12-27T06:29:06.722Z,0.57
2022-12-27T06:31:34.917Z,1.43
2022-12-27T06:34:02.849Z,1.00
2022-12-27T06:36:32.720Z,1.23
2022-12-27T06:39:01.311Z,0.90
2022-12-27T06:41:29.314Z,0.77
2022-12-27T06:43:59.031Z,0.90
2022-12-27T06:46:27.164Z,0.90
2022-12-27T06:48:55.167Z,0.50
2022-12-27T06:51:23.200Z,0.80
2022-12-27T06:53:52.562Z,1.57
2022-12-27T06:56:22.418Z,0.93
2022-12-27T06:58:52.361Z,1.27
2022-12-27T07:01:22.575Z,1.07
2022-12-27T07:03:51.541Z,0.87
2022-12-27T07:06:20.496Z,1.20
2022-12-27T07:08:49.062Z,1.17
2022-12-27T07:11:20.111Z,1.03
2022-12-27T07:13:50.053Z,0.70
2022-12-27T07:16:21.305Z,0.97
2022-12-27T07:18:50.198Z,1.33
2022-12-27T07:21:20.645Z,1.67
2022-12-27T07:23:48.942Z,1.07
2022-12-27T07:26:20.728Z,1.40
2022-12-27T07:28:49.045Z,1.20
2022-12-27T07:31:19.070Z,1.33
2022-12-27T07:33:47.467Z,0.70
2022-12-27T07:36:18.135Z,1.30
2022-12-27T07:38:46.285Z,1.00
2022-12-27T07:41:15.480Z,1.40
2022-12-27T07:43:45.560Z,1.00
2022-12-27T07:46:15.805Z,1.23
2022-12-27T07:48:44.150Z,0.80
2022-12-27T07:51:13.071Z,0.60
2022-12-27T07:53:41.342Z,1.30
2022-12-27T07:56:10.629Z,1.23
2022-12-27T07:58:40.278Z,1.00
2022-12-27T08:01:10.828Z,1.37
2022-12-27T08:03:40.269Z,0.83
2022-12-27T08:06:09.663Z,1.40
2022-12-27T08:08:40.831Z,0.90
2022-12-27T08:11:09.290Z,1.67
2022-12-27T08:13:37.713Z,0.80
2022-12-27T08:16:06.657Z,1.17
2022-12-27T08:18:36.040Z,1.17
2022-12-27T08:21:03.997Z,0.87
2022-12-27T08:23:32.231Z,0.97
2022-12-27T08:26:00.587Z,0.70
2022-12-27T08:28:31.571Z,1.37
2022-12-27T08:31:00.487Z,1.17
2022-12-27T08:33:29.336Z,1.73
2022-12-27T08:35:58.784Z,1.23
2022-12-27T08:38:26.921Z,1.57
2022-12-27T08:40:54.708Z,1.10
2022-12-27T08:43:22.500Z,1.20
2022-12-27T08:45:51.353Z,1.13
2022-12-27T08:48:19.357Z,1.10
2022-12-27T08:50:47.375Z,1.27
2022-12-27T08:53:16.643Z,1.50
2022-12-27T08:55:44.602Z,1.30
2022-12-27T08:58:16.446Z,1.40
2022-12-27T09:00:44.717Z,1.50
2022-12-27T09:03:12.957Z,0.90
2022-12-27T09:05:42.125Z,1.20
2022-12-27T09:08:10.548Z,1.23
2022-12-27T09:10:40.282Z,1.10
2022-12-27T09:13:08.477Z,1.40
2022-12-27T09:15:36.492Z,1.57
2022-12-27T09:18:04.601Z,1.10
2022-12-27T09:20:32.615Z,1.07
2022-12-27T09:23:01.093Z,1.17
2022-12-27T09:25:29.207Z,1.53
2022-12-27T09:27:59.559Z,1.13
2022-12-27T09:30:28.936Z,1.30
2022-12-27T09:32:58.570Z,1.27
2022-12-27T09:35:26.697Z,1.47
2022-12-27T09:37:54.933Z,0.80
2022-12-27T09:40:22.854Z,1.37
2022-12-27T09:43:11.822Z,1.47
2022-12-27T09:45:51.767Z,1.07
2022-12-27T09:48:33.051Z,1.67
2022-12-27T09:51:05.578Z,1.47
2022-12-27T09:53:42.727Z,1.20
2022-12-27T09:56:13.996Z,1.50
2022-12-27T09:58:46.809Z,1.70
2022-12-27T10:01:22.734Z,1.47
2022-12-27T10:03:51.212Z,1.17
2022-12-27T10:06:34.361Z,1.50
2022-12-27T10:09:10.432Z,1.03
2022-12-27T10:11:50.243Z,1.73
2022-12-27T10:14:31.583Z,0.97
2022-12-27T10:17:07.775Z,1.53
2022-12-27T10:19:44.654Z,1.43
2022-12-27T10:22:23.558Z,1.17
2022-12-27T10:24:56.410Z,1.83
2022-12-27T10:27:27.006Z,1.97
2022-12-27T10:29:55.917Z,1.10
2022-12-27T10:32:25.563Z,1.40
2022-12-27T10:34:57.359Z,1.10
2022-12-27T10:37:25.548Z,1.03
2022-12-27T10:39:53.623Z,2.00
2022-12-27T10:42:35.191Z,1.07
2022-12-27T10:45:28.195Z,1.67
2022-12-27T10:47:59.428Z,1.50
2022-12-27T10:50:30.286Z,1.00
2022-12-27T10:52:58.373Z,1.90
2022-12-27T10:55:37.570Z,2.30
2022-12-27T10:58:30.427Z,1.60
2022-12-27T11:00:59.318Z,1.63
2022-12-27T11:03:28.676Z,1.67
2022-12-27T11:06:02.212Z,2.00
2022-12-27T11:08:31.089Z,1.53
2022-12-27T11:11:14.451Z,1.27
2022-12-27T11:13:42.714Z,1.47
2022-12-27T11:16:16.522Z,1.60
2022-12-27T11:18:52.124Z,1.60
2022-12-27T11:21:27.545Z,1.00
2022-12-27T11:23:59.234Z,1.30
2022-12-27T11:26:30.531Z,2.40
2022-12-27T11:29:01.013Z,1.80
2022-12-27T11:31:33.955Z,1.33
2022-12-27T11:34:06.765Z,2.37
2022-12-27T11:36:38.795Z,2.00
2022-12-27T11:39:07.568Z,1.50
2022-12-27T11:41:44.381Z,1.17
2022-12-27T11:44:26.594Z,1.60
2022-12-27T11:47:00.476Z,1.83
2022-12-27T11:49:36.824Z,1.20
2022-12-27T11:52:37.038Z,1.27
2022-12-27T11:55:32.856Z,1.33
2022-12-27T11:58:26.079Z,1.40
2022-12-27T12:01:05.302Z,1.40
2022-12-27T12:04:00.296Z,1.50
2022-12-27T12:06:45.159Z,1.30
2022-12-27T12:09:29.277Z,1.57
2022-12-27T12:12:15.714Z,1.67
2022-12-27T12:14:59.688Z,1.50
2022-12-27T12:17:47.449Z,1.17
2022-12-27T12:20:35.702Z,2.00
2022-12-27T12:23:12.514Z,1.60
2022-12-27T12:26:10.221Z,1.83
2022-12-27T12:29:14.918Z,1.47
2022-12-27T12:32:06.244Z,2.00
2022-12-27T12:34:51.711Z,1.23
2022-12-27T12:37:46.190Z,1.43
2022-12-27T12:40:33.856Z,2.20
2022-12-27T12:43:13.393Z,1.73
2022-12-27T12:46:03.243Z,1.70
2022-12-27T12:49:00.829Z,1.80
2022-12-27T12:52:04.905Z,1.90
2022-12-27T12:55:00.243Z,1.70
2022-12-27T12:57:44.304Z,1.73
2022-12-27T13:00:27.529Z,1.43
2022-12-27T13:03:43.387Z,1.50
2022-12-27T13:06:21.002Z,1.60
2022-12-27T13:08:59.503Z,1.03
2022-12-27T13:11:44.545Z,1.60
2022-12-27T13:14:38.049Z,1.17
2022-12-27T13:17:14.282Z,1.90
2022-12-27T13:20:10.544Z,1.20
2022-12-27T13:22:51.559Z,1.53
2022-12-27T13:25:29.251Z,1.47
2022-12-27T13:28:06.238Z,1.90
2022-12-27T13:30:43.800Z,1.20
2022-12-27T13:33:25.162Z,1.30
2022-12-27T13:36:07.015Z,1.50
2022-12-27T13:38:51.235Z,1.57
2022-12-27T13:41:31.217Z,1.97
2022-12-27T13:44:39.415Z,1.70
2022-12-27T13:47:44.297Z,1.20
2022-12-27T13:50:53.100Z,1.70
2022-12-27T13:53:39.917Z,1.97
2022-12-27T13:56:52.930Z,2.00
2022-12-27T13:59:29.093Z,1.83
2022-12-27T14:02:22.451Z,1.97
2022-12-27T14:05:24.278Z,1.37
2022-12-27T14:08:01.631Z,2.23
2022-12-27T14:10:37.535Z,2.03
2022-12-27T14:13:08.759Z,1.90
2022-12-27T14:15:56.633Z,1.50
2022-12-27T14:18:39.303Z,2.07
2022-12-27T14:21:37.924Z,2.73
2022-12-27T14:24:19.131Z,1.70
2022-12-27T14:27:22.729Z,2.17
2022-12-27T14:30:30.194Z,1.50
2022-12-27T14:33:37.289Z,1.73
2022-12-27T14:36:35.325Z,1.67
2022-12-27T14:39:27.765Z,1.50
2022-12-27T14:42:42.987Z,1.37
2022-12-27T14:45:31.701Z,1.97
2022-12-27T14:48:26.110Z,1.63
2022-12-27T14:51:59.274Z,1.43
2022-12-27T14:54:41.236Z,1.77
2022-12-27T14:57:20.703Z,1.67
2022-12-27T14:59:57.369Z,1.53
2022-12-27T15:02:41.470Z,1.60
2022-12-27T15:05:29.180Z,1.27
2022-12-27T15:08:20.493Z,1.77
2022-12-27T15:11:04.524Z,2.40
2022-12-27T15:13:47.790Z,2.30
2022-12-27T15:16:20.643Z,1.90
2022-12-27T15:19:15.096Z,1.30
2022-12-27T15:21:56.998Z,1.60
2022-12-27T15:24:35.400Z,2.47
2022-12-27T15:27:17.864Z,2.30
2022-12-27T15:30:01.564Z,1.33
2022-12-27T15:32:35.582Z,2.43
2022-12-27T15:35:26.086Z,1.77
2022-12-27T15:38:27.698Z,2.23
2022-12-27T15:41:23.003Z,2.50
2022-12-27T15:44:27.211Z,2.03
2022-12-27T15:47:34.729Z,2.63
2022-12-27T15:50:34.362Z,1.63
2022-12-27T15:53:27.998Z,2.47
2022-12-27T15:56:23.324Z,1.47
2022-12-27T15:59:35.192Z,1.30
2022-12-27T16:02:36.896Z,1.13
2022-12-27T16:05:43.899Z,1.73
2022-12-27T16:08:34.928Z,1.20
2022-12-27T16:11:05.741Z,1.23
2022-12-27T16:13:47.418Z,1.50
2022-12-27T16:16:57.651Z,1.73
2022-12-27T16:19:58.314Z,1.60
2022-12-27T16:22:35.200Z,1.63
2022-12-27T16:25:28.659Z,1.20
2022-12-27T16:28:01.693Z,1.63
2022-12-27T16:30:43.560Z,1.33
2022-12-27T16:33:33.665Z,1.10
2022-12-27T16:36:22.894Z,1.30
2022-12-27T16:39:15.517Z,1.53
2022-12-27T16:42:04.956Z,1.83
2022-12-27T16:44:52.806Z,1.57
2022-12-27T16:47:36.144Z,1.60
2022-12-27T16:50:27.006Z,2.10
2022-12-27T16:53:07.162Z,1.20
2022-12-27T16:56:05.696Z,2.17
2022-12-27T16:58:36.277Z,2.00
2022-12-27T17:01:06.682Z,2.10
2022-12-27T17:03:49.514Z,2.20
2022-12-27T17:06:56.809Z,2.13
2022-12-27T17:09:43.374Z,3.17
2022-12-27T17:12:23.901Z,3.20
2022-12-27T17:14:58.771Z,2.63
2022-12-27T17:17:27.330Z,2.40
2022-12-27T17:20:00.259Z,2.83
2022-12-27T17:22:35.284Z,2.93
2022-12-27T17:25:07.066Z,1.80
2022-12-27T17:27:57.900Z,2.10
2022-12-27T17:30:34.057Z,3.00
2022-12-27T17:33:37.971Z,2.77
2022-12-27T17:36:32.659Z,3.63
2022-12-27T17:39:14.115Z,3.40
2022-12-27T17:42:12.046Z,2.43
2022-12-27T17:44:58.709Z,2.63
2022-12-27T17:47:39.250Z,2.30
2022-12-27T17:50:14.628Z,2.50
2022-12-27T17:53:00.268Z,2.90
2022-12-27T17:55:48.557Z,2.67
2022-12-27T17:58:18.295Z,1.83
2022-12-27T18:00:56.047Z,2.33
2022-12-27T18:03:37.827Z,1.93
2022-12-27T18:06:06.150Z,2.40
2022-12-27T18:08:36.088Z,2.27
2022-12-27T18:11:06.432Z,2.20
2022-12-27T18:13:38.745Z,2.27
2022-12-27T18:16:16.211Z,2.53
2022-12-27T18:18:48.940Z,3.17
2022-12-27T18:21:24.805Z,3.00
2022-12-27T18:23:54.016Z,3.17
2022-12-27T18:26:25.280Z,2.90
2022-12-27T18:28:54.964Z,3.07
2022-12-27T18:31:26.657Z,3.40
2022-12-27T18:33:58.392Z,2.90
2022-12-27T18:36:30.263Z,2.57
2022-12-27T18:39:01.284Z,3.23
2022-12-27T18:41:35.638Z,2.93
2022-12-27T18:44:05.557Z,3.47
2022-12-27T18:46:37.375Z,3.63
2022-12-27T18:49:06.824Z,3.37
2022-12-27T18:51:37.084Z,4.80
2022-12-27T18:54:22.910Z,3.87
2022-12-27T18:56:53.971Z,4.83
2022-12-27T18:59:26.315Z,3.93
2022-12-27T19:01:55.272Z,5.13
2022-12-27T19:04:26.202Z,3.90
2022-12-27T19:06:58.731Z,3.63
2022-12-27T19:09:29.417Z,3.57
2022-12-27T19:11:59.809Z,4.50
2022-12-27T19:14:36.549Z,3.70
2022-12-27T19:17:10.656Z,4.70
2022-12-27T19:19:39.296Z,4.10
2022-12-27T19:22:32.150Z,3.30
2022-12-27T19:25:01.093Z,4.27
2022-12-27T19:27:29.376Z,3.33
2022-12-27T19:29:58.702Z,3.13
2022-12-27T19:32:32.621Z,2.80
2022-12-27T19:35:03.159Z,2.47
2022-12-27T19:37:33.364Z,2.67
2022-12-27T19:40:01.699Z,3.70
2022-12-27T19:42:32.467Z,3.13
2022-12-27T19:45:01.870Z,3.27
2022-12-27T19:47:29.739Z,3.20
2022-12-27T19:49:57.799Z,3.43
2022-12-27T19:52:27.563Z,4.00
2022-12-27T19:55:03.852Z,4.00
2022-12-27T19:57:32.099Z,4.33
2022-12-27T20:00:05.372Z,3.93
2022-12-27T20:02:36.569Z,3.93
2022-12-27T20:05:04.665Z,3.43
2022-12-27T20:07:32.927Z,4.53
2022-12-27T20:10:00.933Z,5.13
2022-12-27T20:12:29.063Z,2.90
2022-12-27T20:14:56.974Z,4.97
2022-12-27T20:17:26.293Z,4.20
2022-12-27T20:19:54.583Z,3.17
2022-12-27T20:22:22.516Z,3.80
2022-12-27T20:24:51.376Z,3.90
2022-12-27T20:27:23.669Z,2.93
2022-12-27T20:29:52.351Z,2.90
2022-12-27T20:32:20.607Z,3.50
2022-12-27T20:34:49.937Z,3.40
2022-12-27T20:37:24.164Z,2.83
2022-12-27T20:39:52.476Z,2.70
2022-12-27T20:42:20.321Z,2.70
2022-12-27T20:44:48.513Z,3.13
2022-12-27T20:47:16.422Z,2.83
2022-12-27T20:49:44.562Z,3.00
2022-12-27T20:52:13.789Z,2.40
2022-12-27T20:54:42.033Z,2.63
2022-12-27T20:57:10.213Z,2.27
2022-12-27T20:59:38.071Z,3.00
2022-12-27T21:02:06.188Z,3.10
2022-12-27T21:04:34.219Z,3.27
2022-12-27T21:07:02.095Z,3.33
2022-12-27T21:09:31.375Z,2.83
2022-12-27T21:11:59.457Z,3.17
2022-12-27T21:14:27.980Z,2.63
2022-12-27T21:16:55.995Z,3.47
2022-12-27T21:19:23.962Z,2.73
2022-12-27T21:21:52.057Z,2.50
2022-12-27T21:24:19.981Z,2.97
2022-12-27T21:26:56.050Z,2.70
2022-12-27T21:29:24.387Z,2.97
2022-12-27T21:31:52.682Z,2.93
2022-12-27T21:34:20.670Z,1.93
2022-12-27T21:36:52.203Z,3.17
2022-12-27T21:39:20.432Z,3.33
2022-12-27T21:41:49.679Z,3.37
2022-12-27T21:44:17.556Z,2.40
2022-12-27T21:46:45.393Z,2.67
2022-12-27T21:49:16.551Z,2.00
2022-12-27T21:51:45.175Z,2.13
2022-12-27T21:54:13.947Z,2.13
2022-12-27T21:56:42.005Z,2.40
2022-12-27T21:59:12.163Z,2.20
2022-12-27T22:01:50.742Z,1.60
2022-12-27T22:04:21.927Z,1.57
2022-12-27T22:06:50.166Z,2.10
2022-12-27T22:09:19.269Z,1.93
2022-12-27T22:11:47.985Z,1.93
2022-12-27T22:14:20.702Z,2.57
2022-12-27T22:16:55.750Z,1.87
2022-12-27T22:19:24.098Z,1.40
2022-12-27T22:21:52.164Z,1.90
2022-12-27T22:24:20.520Z,2.17
2022-12-27T22:26:50.277Z,1.33
2022-12-27T22:29:21.661Z,1.80
2022-12-27T22:31:49.847Z,1.50
2022-12-27T22:34:18.023Z,1.30
2022-12-27T22:36:46.377Z,1.30
2022-12-27T22:39:14.271Z,1.83
2022-12-27T22:41:42.252Z,1.00
2022-12-27T22:44:12.664Z,2.27
2022-12-27T22:49:31.372Z,1.67
2022-12-27T22:51:59.358Z,1.60
2022-12-27T22:55:07.028Z,2.37
2022-12-27T22:57:15.379Z,1.57
2022-12-27T22:59:43.471Z,1.57
2022-12-27T23:02:12.882Z,2.07
2022-12-27T23:04:41.055Z,1.43
2022-12-27T23:07:08.939Z,1.70
2022-12-27T23:09:42.840Z,2.00
2022-12-27T23:12:11.273Z,2.20
2022-12-27T23:14:39.555Z,1.93
2022-12-27T23:17:07.515Z,1.87
2022-12-27T23:19:36.888Z,2.10
2022-12-27T23:22:04.866Z,1.30
2022-12-27T23:24:32.853Z,1.73
2022-12-27T23:27:00.882Z,1.57
2022-12-27T23:29:29.480Z,1.40
2022-12-27T23:31:57.424Z,1.60
2022-12-27T23:34:28.603Z,1.50
2022-12-27T23:36:59.241Z,1.43
2022-12-27T23:39:27.316Z,1.57
2022-12-27T23:41:55.369Z,1.70
2022-12-27T23:44:33.775Z,1.80
2022-12-27T23:47:03.586Z,1.60
2022-12-27T23:49:31.614Z,1.93
2022-12-27T23:52:01.611Z,1.97
2022-12-27T23:54:29.683Z,1.53
2022-12-27T23:56:57.743Z,2.00
2022-12-27T23:59:25.721Z,1.87
